createdAt,value
2023-04-06T06:20:36.539Z,101.87
2023-04-06T06:30:36.477Z,90.45
2023-04-06T06:40:36.734Z,109.73
2023-04-06T06:50:36.609Z,127.79
2023-04-06T07:00:36.459Z,114.54
2023-04-06T07:10:36.551Z,102.23
2023-04-06T07:20:36.507Z,106.07
2023-04-06T07:30:37.137Z,98.58
2023-04-06T07:40:36.634Z,102.67
2023-04-06T07:50:36.584Z,102.57
2023-04-06T08:00:36.692Z,103.33
2023-04-06T08:10:36.631Z,100.01
2023-04-06T08:20:36.816Z,102.33
2023-04-06T08:30:36.555Z,106.64
2023-04-06T08:40:36.852Z,112.91
2023-04-06T08:50:36.914Z,139.88
2023-04-06T09:00:36.931Z,153.84
2023-04-06T09:10:37.030Z,148.44
2023-04-06T09:20:36.901Z,142.93
2023-04-06T09:30:37.178Z,143.42
2023-04-06T09:40:38.681Z,140.54
2023-04-06T09:50:37.022Z,126.18
2023-04-06T10:00:37.146Z,131.59
2023-04-06T10:10:36.896Z,129.49
2023-04-06T10:20:36.993Z,154.27
2023-04-06T10:30:37.047Z,146.71
2023-04-06T10:40:36.913Z,139.99
2023-04-06T10:50:37.210Z,141.12
2023-04-06T11:00:49.157Z,154.09
2023-04-06T11:10:36.878Z,160.33
2023-04-06T11:20:36.846Z,150.27
2023-04-06T11:30:37.044Z,149.40
2023-04-06T11:40:37.240Z,152.59
2023-04-06T11:50:37.068Z,175.37
2023-04-06T12:00:37.005Z,167.85
2023-04-06T12:10:37.208Z,153.70
2023-04-06T12:20:37.145Z,143.37
2023-04-06T12:30:37.212Z,125.58
2023-04-06T12:40:37.188Z,151.07
2023-04-06T12:50:37.138Z,158.21
2023-04-06T13:00:37.221Z,137.94
2023-04-06T13:10:37.172Z,138.33
2023-04-06T13:20:38.154Z,123.67
2023-04-06T13:30:37.193Z,135.52
2023-04-06T13:40:37.062Z,153.79
2023-04-06T13:50:37.055Z,152.00
2023-04-06T14:00:37.444Z,144.90
2023-04-06T14:10:37.262Z,146.04
2023-04-06T14:20:37.117Z,134.01
2023-04-06T14:30:37.415Z,127.60
2023-04-06T14:40:37.356Z,142.61
2023-04-06T14:50:37.229Z,140.32
2023-04-06T15:00:37.183Z,137.49
2023-04-06T15:10:37.259Z,145.04
2023-04-06T15:20:37.306Z,141.89
2023-04-06T15:30:37.268Z,131.46
2023-04-06T15:40:37.655Z,122.59
2023-04-06T15:50:37.413Z,116.41
2023-04-06T16:00:37.374Z,152.49
2023-04-06T16:10:37.333Z,140.71
2023-04-06T16:20:37.515Z,113.66
2023-04-06T16:30:37.451Z,98.82
2023-04-06T16:40:37.444Z,114.81
2023-04-06T16:50:37.407Z,127.60
2023-04-06T17:00:37.470Z,102.65
2023-04-06T17:10:41.843Z,111.77
2023-04-06T17:20:37.393Z,92.04
2023-04-06T17:30:37.486Z,90.69
2023-04-06T17:40:37.531Z,90.00
2023-04-06T17:50:37.490Z,90.00
2023-04-06T18:00:37.659Z,90.00
2023-04-06T18:10:37.486Z,90.00
2023-04-06T18:20:37.490Z,90.00
2023-04-06T18:30:37.569Z,90.00
2023-04-06T18:40:37.806Z,90.02
2023-04-06T18:50:38.026Z,90.00
2023-04-06T19:00:38.046Z,90.00
2023-04-06T19:10:38.107Z,90.00
2023-04-06T19:20:38.179Z,90.00
